Time;durP1;ratioP1;P1;durP2;ratioP2;P2;SDS_P1;SDS_P2;PMS_P1;PMS_P2;Temp;Humidity;BMP_temperature;BMP_pressure;BME280_temperature;BME280_humidity;BME280_pressure;Samples;Min_cycle;Max_cycle;Signal;HPM_P1;HPM_P2
2022/09/07 00:00:41;;;;;;;11.13;6.90;;;;;;;30.18;100.00;101133.56;5072157;28;20040;-53
2022/09/07 00:03:07;;;;;;;16.37;7.90;;;;;;;30.04;100.00;101133.69;5073920;28;20100;-51
2022/09/07 00:05:33;;;;;;;17.65;7.53;;;;;;;29.15;100.00;101139.16;5074174;28;20036;-50
2022/09/07 00:07:59;;;;;;;;;;;;;;;29.01;100.00;101140.03;5072658;28;20104;-51
2022/09/07 00:10:25;;;;;;;18.40;7.67;;;;;;;29.59;100.00;101153.97;5078961;28;19919;-52
2022/09/07 00:12:51;;;;;;;;;;;;;;;29.53;100.00;101151.69;5074776;28;20029;-54
2022/09/07 00:15:17;;;;;;;27.00;9.17;;;;;;;29.82;100.00;101155.81;5077487;28;19924;-52
2022/09/07 00:17:44;;;;;;;12.07;6.77;;;;;;;28.72;100.00;101149.50;5078134;28;20028;-51
2022/09/07 00:20:10;;;;;;;18.80;7.55;;;;;;;28.95;100.00;101156.97;5080252;28;20035;-51
2022/09/07 00:22:36;;;;;;;20.47;8.53;;;;;;;27.90;100.00;101161.16;5076567;28;20033;-50
2022/09/07 00:25:02;;;;;;;26.08;10.02;;;;;;;28.25;100.00;101168.19;5078374;28;20108;-51
2022/09/07 00:27:27;;;;;;;23.02;9.05;;;;;;;26.94;100.00;101179.88;5074654;28;20065;-54
2022/09/07 00:29:53;;;;;;;40.07;9.93;;;;;;;26.72;100.00;101183.22;5079766;28;20044;-49
2022/09/07 00:32:19;;;;;;;37.78;8.35;;;;;;;27.10;100.00;101209.81;5068492;28;20274;-53
2022/09/07 00:34:44;;;;;;;58.30;10.57;;;;;;;26.71;100.00;101201.56;5074124;28;20032;-50
2022/09/07 00:37:10;;;;;;;45.22;9.70;;;;;;;25.91;100.00;101212.97;5072035;28;20360;-53
2022/09/07 00:39:36;;;;;;;20.67;9.20;;;;;;;27.62;100.00;101201.56;5073350;28;20036;-50
2022/09/07 00:42:02;;;;;;;15.50;7.97;;;;;;;28.35;100.00;101173.44;5072180;28;20036;-50
2022/09/07 00:44:43;;;;;;;22.40;8.80;;;;;;;28.37;100.00;101151.97;5072671;28;20053;-50
2022/09/07 00:47:26;;;;;;;23.30;10.73;;;;;;;28.76;100.00;101145.00;5076043;28;20326;-50
2022/09/07 00:50:01;;;;;;;24.83;11.43;;;;;;;28.83;100.00;101150.13;5073732;28;20261;-49
2022/09/07 00:52:29;;;;;;;25.67;12.53;;;;;;;29.48;100.00;101160.88;5074752;28;20324;-47
2022/09/07 00:55:00;;;;;;;27.53;13.03;;;;;;;29.82;100.00;101177.88;5078041;28;20048;-52
2022/09/07 00:57:27;;;;;;;26.83;13.67;;;;;;;30.03;100.00;101187.22;5077990;28;20285;-49
2022/09/07 00:59:53;;;;;;;;;;;;;;;29.57;100.00;101188.47;5076987;28;20033;-51
2022/09/07 01:02:20;;;;;;;22.45;12.50;;;;;;;28.68;100.00;101189.78;5076013;28;19943;-53
2022/09/07 01:04:49;;;;;;;22.05;11.00;;;;;;;28.61;100.00;101170.94;5071999;28;20044;-53
2022/09/07 01:07:15;;;;;;;29.23;12.40;;;;;;;29.39;100.00;101160.00;5071768;28;20044;-56
2022/09/07 01:09:42;;;;;;;24.30;12.45;;;;;;;28.91;100.00;101140.31;5074291;28;20040;-55
2022/09/07 01:12:08;;;;;;;24.57;12.53;;;;;;;28.90;100.00;101147.72;5074823;28;20033;-53
2022/09/07 01:14:38;;;;;;;19.35;10.35;;;;;;;28.84;100.00;101146.22;5077676;28;20270;-55
2022/09/07 01:17:17;;;;;;;27.83;12.77;;;;;;;28.84;100.00;101132.47;5076251;28;20051;-54
2022/09/07 01:20:08;;;;;;;22.43;11.53;;;;;;;28.62;100.00;101114.00;5076397;28;20044;-55
2022/09/07 01:22:52;;;;;;;19.70;10.50;;;;;;;28.69;100.00;101106.13;5077422;28;20029;-54
2022/09/07 01:25:40;;;;;;;21.87;11.53;;;;;;;28.47;100.00;101105.00;5080651;28;20295;-52
2022/09/07 01:28:20;;;;;;;18.90;10.03;;;;;;;28.50;100.00;101095.31;5078400;28;20272;-54
2022/09/07 01:31:19;;;;;;;21.60;9.93;;;;;;;28.54;100.00;101106.47;5079744;28;20286;-56
2022/09/07 01:34:10;;;;;;;15.33;8.90;;;;;;;29.11;100.00;101118.88;5075846;28;20265;-53
2022/09/07 01:37:04;;;;;;;18.60;9.10;;;;;;;28.54;100.00;101123.00;5075916;28;20286;-56
2022/09/07 01:39:50;;;;;;;18.53;9.13;;;;;;;28.93;100.00;101121.53;5077770;28;20041;-52
2022/09/07 01:42:22;;;;;;;19.53;10.03;;;;;;;28.56;100.00;101112.47;5080804;28;20269;-53
2022/09/07 01:44:59;;;;;;;22.43;9.67;;;;;;;28.86;100.00;101104.66;5080552;28;20278;-54
2022/09/07 01:47:51;;;;;;;20.47;10.10;;;;;;;29.01;100.00;101107.00;5073385;28;20048;-53
2022/09/07 01:50:25;;;;;;;16.87;9.23;;;;;;;28.41;100.00;101110.91;5074163;28;20295;-52
2022/09/07 01:53:00;;;;;;;18.73;10.70;;;;;;;29.31;100.00;101107.34;5076106;28;20286;-53
2022/09/07 01:55:32;;;;;;;22.73;11.07;;;;;;;29.27;100.00;101106.31;5076250;28;20283;-53
2022/09/07 01:58:22;;;;;;;19.77;12.30;;;;;;;29.49;100.00;101104.66;5073554;28;20866;-54
2022/09/07 02:00:54;;;;;;;20.27;12.00;;;;;;;29.37;100.00;101102.47;5075535;28;20032;-54
2022/09/07 02:03:23;;;;;;;18.80;8.60;;;;;;;29.29;100.00;101095.78;5075542;28;20296;-55
2022/09/07 02:05:59;;;;;;;18.27;9.77;;;;;;;29.11;100.00;101086.66;5079309;28;20261;-54
2022/09/07 02:08:31;;;;;;;17.60;10.43;;;;;;;29.51;100.00;101083.09;5083339;28;20308;-50
2022/09/07 02:11:04;;;;;;;26.37;12.07;;;;;;;28.64;100.00;101081.50;5080442;28;20033;-51
2022/09/07 02:13:44;;;;;;;19.13;10.10;;;;;;;28.47;100.00;101074.72;5081581;28;20059;-49
2022/09/07 02:16:21;;;;;;;23.97;12.03;;;;;;;29.18;100.00;101075.19;5077500;28;20041;-51
2022/09/07 02:18:52;;;;;;;20.80;10.90;;;;;;;29.48;100.00;101069.97;5080526;28;20033;-55
2022/09/07 02:21:22;;;;;;;19.97;10.17;;;;;;;29.54;100.00;101079.75;5074630;28;20052;-54
2022/09/07 02:24:02;;;;;;;22.50;11.80;;;;;;;29.60;100.00;101077.63;5078969;28;20029;-53
2022/09/07 02:26:28;;;;;;;18.17;9.77;;;;;;;28.85;100.00;101078.25;5069377;28;20059;-55
2022/09/07 02:28:54;;;;;;;20.53;10.07;;;;;;;28.49;100.00;101068.94;5074507;28;20036;-53
2022/09/07 02:31:19;;;;;;;;;;;;;;;28.36;100.00;101062.34;5077886;28;20047;-54
2022/09/07 02:33:46;;;;;;;14.80;8.40;;;;;;;28.19;100.00;101061.09;5079168;28;19912;-56
2022/09/07 02:36:14;;;;;;;12.83;8.00;;;;;;;28.56;100.00;101058.28;5075964;28;20037;-54
2022/09/07 02:38:40;;;;;;;15.33;7.73;;;;;;;28.90;100.00;101067.13;5076686;28;20036;-56
2022/09/07 02:41:36;;;;;;;19.13;6.55;;;;;;;28.63;100.00;101060.63;5072380;28;20041;-56
2022/09/07 02:44:09;;;;;;;12.53;6.10;;;;;;;28.54;100.00;101071.56;5076068;28;20044;-54
2022/09/07 02:46:54;;;;;;;15.37;6.67;;;;;;;28.68;100.00;101071.47;5082973;28;20041;-54
2022/09/07 02:49:43;;;;;;;10.73;6.15;;;;;;;28.05;100.00;101071.25;5079268;28;20140;-53
2022/09/07 02:52:23;;;;;;;;;;;;;;;27.93;100.00;101077.28;5083752;28;20104;-55
2022/09/07 02:55:08;;;;;;;13.23;6.10;;;;;;;28.13;100.00;101076.03;5081430;28;19916;-54
2022/09/07 02:57:40;;;;;;;13.83;6.70;;;;;;;27.84;100.00;101068.97;5082048;28;20305;-52
2022/09/07 03:00:10;;;;;;;12.40;6.97;;;;;;;27.74;100.00;101060.94;5075824;28;20029;-56
2022/09/07 03:02:48;;;;;;;14.20;7.17;;;;;;;27.99;100.00;101053.28;5077246;28;20287;-53
2022/09/07 03:05:38;;;;;;;14.90;7.53;;;;;;;27.81;100.00;101047.59;5074652;28;20036;-53
2022/09/07 03:08:43;;;;;;;16.73;7.17;;;;;;;27.85;100.00;101058.81;5076187;28;20269;-51
2022/09/07 03:11:09;;;;;;;14.00;7.57;;;;;;;27.91;100.00;101066.63;5073181;28;20068;-51
2022/09/07 03:13:35;;;;;;;;;;;;;;;27.65;100.00;101068.28;5073038;28;20037;-54
2022/09/07 03:16:01;;;;;;;20.93;7.40;;;;;;;27.76;100.00;101069.69;5072546;28;19927;-54
2022/09/07 03:18:27;;;;;;;12.60;7.35;;;;;;;27.84;100.00;101077.22;5078639;28;20055;-50
2022/09/07 03:20:54;;;;;;;12.90;6.28;;;;;;;28.00;100.00;101076.88;5076342;28;20033;-51
2022/09/07 03:23:20;;;;;;;16.03;8.30;;;;;;;27.89;100.00;101068.06;5075636;28;20097;-51
2022/09/07 03:25:49;;;;;;;17.20;8.45;;;;;;;27.97;100.00;101069.25;5078866;28;20293;-51
2022/09/07 03:28:15;;;;;;;15.93;8.50;;;;;;;27.94;100.00;101059.69;5075677;28;20045;-53
2022/09/07 03:30:42;;;;;;;;;;;;;;;27.76;100.00;101064.19;5079857;28;20056;-51
2022/09/07 03:33:09;;;;;;;15.87;8.70;;;;;;;27.75;100.00;101057.09;5077399;28;19918;-51
2022/09/07 03:35:35;;;;;;;16.57;8.33;;;;;;;27.70;100.00;101054.44;5078292;28;20029;-51
2022/09/07 03:38:01;;;;;;;14.30;8.48;;;;;;;27.67;100.00;101055.03;5078309;28;20087;-53
2022/09/07 03:40:26;;;;;;;17.65;8.82;;;;;;;27.52;100.00;101067.97;5077196;28;20034;-54
2022/09/07 03:42:52;;;;;;;14.95;8.57;;;;;;;27.60;100.00;101064.50;5074821;28;20052;-54
2022/09/07 03:45:18;;;;;;;17.88;9.90;;;;;;;27.57;100.00;101054.13;5073792;28;20063;-51
2022/09/07 03:47:44;;;;;;;18.35;8.75;;;;;;;27.40;100.00;101071.22;5073587;28;20100;-51
2022/09/07 03:50:10;;;;;;;20.35;10.20;;;;;;;27.55;100.00;101069.28;5075904;28;20032;-54
2022/09/07 03:52:36;;;;;;;22.25;10.35;;;;;;;27.47;100.00;101084.53;5079125;28;20032;-57
2022/09/07 03:55:03;;;;;;;20.30;11.27;;;;;;;27.45;100.00;101075.75;5076191;28;20044;-52
2022/09/07 03:57:28;;;;;;;22.10;10.53;;;;;;;27.50;100.00;101070.19;5081526;28;20048;-50
2022/09/07 03:59:53;;;;;;;18.90;12.10;;;;;;;27.59;100.00;101070.31;5071990;28;20286;-52
2022/09/07 04:02:19;;;;;;;21.50;12.10;;;;;;;27.56;100.00;101069.00;5080044;28;20056;-51
2022/09/07 04:04:45;;;;;;;20.67;11.18;;;;;;;27.42;100.00;101059.91;5077610;28;20036;-53
2022/09/07 04:07:11;;;;;;;23.52;11.95;;;;;;;27.46;100.00;101060.94;5074258;28;20029;-52
2022/09/07 04:09:37;;;;;;;28.77;16.90;;;;;;;27.48;100.00;101077.94;5079039;28;20041;-53
2022/09/07 04:12:03;;;;;;;27.55;13.90;;;;;;;26.81;100.00;101074.41;5076208;28;20278;-49
2022/09/07 04:14:28;;;;;;;22.13;13.20;;;;;;;27.27;100.00;101078.31;5081866;28;20048;-53
2022/09/07 04:16:54;;;;;;;32.33;16.55;;;;;;;26.99;100.00;101082.94;5077699;28;20037;-48
2022/09/07 04:19:20;;;;;;;21.60;13.38;;;;;;;26.77;100.00;101078.88;5077518;28;20057;-56
2022/09/07 04:21:46;;;;;;;27.08;14.45;;;;;;;26.20;100.00;101061.38;5073736;28;20032;-56
2022/09/07 04:24:13;;;;;;;31.98;14.35;;;;;;;26.58;100.00;101057.00;5072045;28;20032;-52
2022/09/07 04:26:39;;;;;;;23.67;14.30;;;;;;;26.27;100.00;101054.69;5070928;28;20036;-52
2022/09/07 04:29:05;;;;;;;23.40;14.80;;;;;;;26.65;100.00;101062.09;5073175;28;20304;-53
2022/09/07 04:31:33;;;;;;;29.92;16.83;;;;;;;26.73;100.00;101051.22;5071690;28;20044;-52
2022/09/07 04:33:58;;;;;;;23.27;14.70;;;;;;;26.85;100.00;101056.25;5073760;28;20070;-52
2022/09/07 04:36:23;;;;;;;23.63;14.33;;;;;;;26.83;100.00;101049.44;5072495;28;20289;-54
2022/09/07 04:39:01;;;;;;;31.48;18.33;;;;;;;26.92;100.00;101044.91;5081273;28;20052;-54
2022/09/07 04:41:29;;;;;;;31.60;17.77;;;;;;;26.96;100.00;101043.19;5073162;28;20033;-53
2022/09/07 04:43:57;;;;;;;29.00;16.63;;;;;;;26.95;100.00;101047.03;5073589;28;20052;-49
2022/09/07 04:46:32;;;;;;;21.10;13.33;;;;;;;26.09;100.00;101043.44;5076565;28;20025;-52
2022/09/07 04:49:01;;;;;;;26.23;13.23;;;;;;;26.34;100.00;101044.19;5079242;28;20032;-55
2022/09/07 04:51:30;;;;;;;55.43;23.87;;;;;;;26.65;100.00;101035.47;5081308;28;20269;-53
2022/09/07 04:53:57;;;;;;;50.93;20.37;;;;;;;26.91;100.00;101032.31;5081667;28;20039;-49
2022/09/07 04:56:24;;;;;;;29.97;15.73;;;;;;;27.19;100.00;101035.09;5075361;28;20036;-55
2022/09/07 04:58:50;;;;;;;45.30;21.07;;;;;;;27.20;100.00;101028.47;5079638;28;20063;-52
2022/09/07 05:01:18;;;;;;;44.35;21.50;;;;;;;27.27;100.00;101025.31;5075898;28;20050;-54
2022/09/07 05:03:43;;;;;;;43.40;20.17;;;;;;;27.28;100.00;101029.69;5069538;28;20043;-53
2022/09/07 05:06:09;;;;;;;;;;;;;;;27.29;100.00;101032.16;5071378;28;20063;-53
2022/09/07 05:08:41;;;;;;;39.33;19.23;;;;;;;27.10;100.00;101031.41;5072749;28;19913;-53
2022/09/07 05:11:07;;;;;;;31.43;17.57;;;;;;;26.95;100.00;101027.84;5071728;28;20108;-54
2022/09/07 05:13:33;;;;;;;30.93;15.90;;;;;;;27.85;100.00;101032.13;5074497;28;20092;-51
2022/09/07 05:16:00;;;;;;;27.52;15.90;;;;;;;27.58;100.00;101033.78;5075895;28;20041;-54
2022/09/07 05:18:26;;;;;;;32.97;15.60;;;;;;;27.65;100.00;101029.81;5074852;28;20052;-54
2022/09/07 05:20:52;;;;;;;;;;;;;;;26.96;100.00;101026.72;5074166;28;20033;-53
2022/09/07 05:23:17;;;;;;;24.27;15.97;;;;;;;26.92;100.00;101039.41;5076972;28;19923;-53
2022/09/07 05:25:44;;;;;;;22.83;14.25;;;;;;;26.91;100.00;101044.09;5077542;28;20036;-54
2022/09/07 05:28:11;;;;;;;23.60;15.13;;;;;;;26.49;100.00;101060.38;5079710;28;20033;-54
2022/09/07 05:30:37;;;;;;;;;;;;;;;26.84;100.00;101056.56;5079065;28;20096;-52
2022/09/07 05:33:04;;;;;;;25.20;14.77;;;;;;;27.18;100.00;101060.91;5075197;28;19944;-53
2022/09/07 05:35:29;;;;;;;;;;;;;;;26.18;100.00;101079.22;5082391;28;20043;-52
2022/09/07 05:37:55;;;;;;;30.67;16.17;;;;;;;25.73;100.00;101080.34;5071965;28;19921;-55
2022/09/07 05:40:21;;;;;;;23.85;16.27;;;;;;;26.37;100.00;101075.66;5072249;28;20044;-53
2022/09/07 05:42:47;;;;;;;27.27;16.58;;;;;;;26.88;100.00;101080.38;5070765;28;20049;-52
2022/09/07 05:45:12;;;;;;;26.17;16.35;;;;;;;26.09;100.00;101084.53;5074265;28;20041;-53
2022/09/07 05:47:38;;;;;;;27.88;15.70;;;;;;;26.09;100.00;101076.31;5073140;28;20036;-53
2022/09/07 05:50:07;;;;;;;25.95;16.02;;;;;;;25.63;100.00;101070.31;5074678;28;20064;-51
2022/09/07 05:52:34;;;;;;;27.30;16.33;;;;;;;26.12;100.00;101075.72;5074318;28;20105;-56
2022/09/07 05:55:00;;;;;;;25.80;17.13;;;;;;;25.65;100.00;101071.94;5075514;28;20037;-52
2022/09/07 05:57:25;;;;;;;32.67;19.02;;;;;;;25.67;100.00;101080.69;5076285;28;20043;-54
2022/09/07 05:59:51;;;;;;;32.72;17.05;;;;;;;25.66;100.00;101079.06;5078021;28;20051;-51
2022/09/07 06:02:16;;;;;;;27.90;16.88;;;;;;;25.14;100.00;101072.19;5074945;28;20084;-56
2022/09/07 06:04:42;;;;;;;25.65;16.95;;;;;;;25.74;100.00;101061.97;5079279;28;20048;-49
2022/09/07 06:07:12;;;;;;;31.27;16.45;;;;;;;26.26;100.00;101062.13;5076074;28;20028;-54
2022/09/07 06:09:37;;;;;;;28.13;17.97;;;;;;;26.49;100.00;101067.81;5078738;28;20032;-53
2022/09/07 06:12:04;;;;;;;;;;;;;;;26.96;100.00;101083.53;5079781;28;20047;-51
2022/09/07 06:14:30;;;;;;;28.43;17.87;;;;;;;27.05;100.00;101077.06;5079932;28;19912;-54
2022/09/07 06:16:56;;;;;;;27.20;17.83;;;;;;;26.72;100.00;101079.78;5075631;28;20135;-51
2022/09/07 06:19:22;;;;;;;28.05;17.20;;;;;;;26.99;100.00;101080.19;5077210;28;20025;-55
2022/09/07 06:21:47;;;;;;;27.00;17.25;;;;;;;26.53;100.00;101073.53;5073870;28;20048;-53
2022/09/07 06:24:13;;;;;;;27.77;19.17;;;;;;;26.62;100.00;101077.22;5072394;28;20025;-49
2022/09/07 06:26:38;;;;;;;24.33;17.83;;;;;;;26.46;100.00;101069.22;5075184;28;20056;-52
2022/09/07 06:29:04;;;;;;;25.02;17.33;;;;;;;26.15;100.00;101079.78;5076165;28;20037;-50
2022/09/07 06:31:29;;;;;;;24.02;16.13;;;;;;;26.18;100.00;101082.78;5072525;28;20067;-54
2022/09/07 06:33:56;;;;;;;28.95;16.38;;;;;;;25.87;100.00;101087.81;5076104;28;20091;-51
2022/09/07 06:36:26;;;;;;;30.45;16.63;;;;;;;25.66;100.00;101084.53;5079291;28;20037;-51
2022/09/07 06:38:53;;;;;;;25.63;16.63;;;;;;;25.72;100.00;101088.84;5077983;28;20056;-50
2022/09/07 06:41:22;;;;;;;31.77;17.97;;;;;;;25.57;100.00;101092.56;5078770;28;20033;-49
2022/09/07 06:43:48;;;;;;;29.50;18.33;;;;;;;26.28;100.00;101106.50;5076160;28;20099;-52
2022/09/07 06:46:14;;;;;;;29.95;18.88;;;;;;;25.98;100.00;101102.22;5077082;28;20029;-54
2022/09/07 06:48:39;;;;;;;30.33;17.73;;;;;;;26.16;100.00;101101.47;5080353;28;20055;-53
2022/09/07 06:51:12;;;;;;;26.85;16.92;;;;;;;26.24;100.00;101101.91;5078856;28;20096;-50
2022/09/07 06:53:38;;;;;;;28.20;17.17;;;;;;;25.77;100.00;101102.47;5075339;28;20036;-52
2022/09/07 06:56:05;;;;;;;;;;;;;;;25.77;100.00;101105.19;5079645;28;20044;-51
2022/09/07 06:58:31;;;;;;;25.80;17.30;;;;;;;25.81;100.00;101110.91;5070421;28;19913;-52
2022/09/07 07:00:57;;;;;;;23.80;16.38;;;;;;;25.39;100.00;101099.59;5071449;28;20029;-52
2022/09/07 07:03:22;;;;;;;31.67;20.08;;;;;;;25.51;100.00;101104.69;5074599;28;20084;-52
2022/09/07 07:05:53;;;;;;;35.80;19.23;;;;;;;25.16;100.00;101102.00;5072949;28;20036;-51
2022/09/07 07:08:21;;;;;;;31.80;19.30;;;;;;;24.96;100.00;101105.72;5070392;28;20037;-51
2022/09/07 07:10:47;;;;;;;29.90;18.03;;;;;;;24.89;100.00;101103.31;5073986;28;20032;-52
2022/09/07 07:13:12;;;;;;;30.83;18.38;;;;;;;25.56;100.00;101097.22;5074535;28;20098;-56
2022/09/07 07:15:37;;;;;;;35.92;21.40;;;;;;;24.92;100.00;101092.63;5075761;28;20028;-52
2022/09/07 07:18:03;;;;;;;42.28;21.45;;;;;;;25.39;100.00;101099.59;5078618;28;20029;-55
2022/09/07 07:20:28;;;;;;;41.67;21.52;;;;;;;25.42;100.00;101099.00;5075988;28;20067;-51
2022/09/07 07:22:54;;;;;;;41.75;23.48;;;;;;;25.38;100.00;101084.28;5074171;28;20028;-50
2022/09/07 07:25:20;;;;;;;39.92;22.77;;;;;;;26.24;100.00;101093.66;5073126;28;20060;-50
2022/09/07 07:27:46;;;;;;;36.63;22.63;;;;;;;25.47;100.00;101093.50;5076672;28;20025;-49
2022/09/07 07:30:13;;;;;;;43.25;24.40;;;;;;;26.05;100.00;101089.78;5074127;28;20047;-55
2022/09/07 07:32:39;;;;;;;43.00;23.40;;;;;;;26.57;100.00;101096.50;5075662;28;20029;-53
2022/09/07 07:35:06;;;;;;;;;;;;;;;26.44;100.00;101098.06;5072645;28;20096;-53
2022/09/07 07:37:32;;;;;;;42.10;24.33;;;;;;;27.08;100.00;101108.56;5070205;28;19917;-54
2022/09/07 07:39:59;;;;;;;39.75;24.27;;;;;;;26.94;100.00;101119.50;5072746;28;20052;-51
2022/09/07 07:42:25;;;;;;;42.80;24.10;;;;;;;27.80;100.00;101116.63;5069430;28;20105;-54
2022/09/07 07:44:51;;;;;;;;;;;;;;;27.31;100.00;101126.00;5078241;28;20048;-53
2022/09/07 07:47:16;;;;;;;44.03;24.53;;;;;;;26.86;100.00;101126.47;5070593;28;19919;-54
2022/09/07 07:49:42;;;;;;;40.90;24.33;;;;;;;26.87;100.00;101132.81;5072618;28;20024;-53
2022/09/07 07:52:07;;;;;;;36.13;22.98;;;;;;;27.42;100.00;101136.78;5076549;28;20041;-52
2022/09/07 07:54:36;;;;;;;43.83;26.15;;;;;;;27.43;100.00;101132.91;5071869;28;20068;-53
2022/09/07 07:57:02;;;;;;;38.07;22.33;;;;;;;27.18;100.00;101149.56;5071178;28;20100;-54
2022/09/07 07:59:27;;;;;;;;;;;;;;;26.65;100.00;101145.16;5069397;28;20048;-52
2022/09/07 08:01:53;;;;;;;44.47;25.53;;;;;;;26.83;100.00;101142.72;5071562;28;19936;-55
2022/09/07 08:04:18;;;;;;;34.13;21.25;;;;;;;26.88;100.00;101148.16;5071635;28;20036;-55
2022/09/07 08:06:43;;;;;;;36.15;22.75;;;;;;;26.13;100.00;101145.88;5072555;28;20029;-56
2022/09/07 08:09:10;;;;;;;35.77;23.43;;;;;;;26.43;100.00;101143.84;5077519;28;20056;-54
2022/09/07 08:11:38;;;;;;;39.27;22.37;;;;;;;26.46;100.00;101147.94;5081725;28;20353;-56
2022/09/07 08:14:05;;;;;;;41.37;26.10;;;;;;;27.70;100.00;101142.34;5071305;28;20033;-54
2022/09/07 08:16:30;;;;;;;36.17;24.52;;;;;;;28.13;100.00;101150.25;5073116;28;20053;-53
2022/09/07 08:18:57;;;;;;;34.22;22.77;;;;;;;28.21;100.00;101156.97;5069006;28;20097;-55
2022/09/07 08:21:22;;;;;;;;;;;;;;;28.58;100.00;101165.25;5068890;28;20045;-53
2022/09/07 08:23:48;;;;;;;34.87;21.90;;;;;;;28.53;100.00;101166.19;5072840;28;19917;-52
2022/09/07 08:26:13;;;;;;;36.17;22.60;;;;;;;27.51;100.00;101173.47;5070293;28;20101;-54
2022/09/07 08:28:42;;;;;;;29.15;20.17;;;;;;;27.65;100.00;101167.16;5069327;28;20032;-52
2022/09/07 08:31:13;;;;;;;30.13;20.47;;;;;;;26.88;100.00;101170.94;5067438;28;20033;-53
2022/09/07 08:33:39;;;;;;;25.37;17.57;;;;;;;27.04;100.00;101170.66;5067093;28;20036;-54
2022/09/07 08:36:07;;;;;;;31.00;20.63;;;;;;;27.29;100.00;101166.69;5070477;28;20101;-50
2022/09/07 08:38:34;;;;;;;28.80;19.50;;;;;;;27.76;100.00;101166.66;5069710;28;20033;-52
2022/09/07 08:41:02;;;;;;;30.20;20.10;;;;;;;27.75;100.00;101170.53;5070363;28;20104;-55
2022/09/07 08:43:39;;;;;;;31.70;18.77;;;;;;;26.96;100.00;101166.66;5070399;28;20029;-53
2022/09/07 08:46:16;;;;;;;30.00;19.13;;;;;;;27.04;100.00;101176.97;5073811;28;20045;-54
2022/09/07 08:48:42;;;;;;;25.83;17.70;;;;;;;27.28;100.00;101175.19;5072267;28;20091;-56
2022/09/07 08:51:39;;;;;;;30.57;20.23;;;;;;;27.22;100.00;101168.19;5071910;28;20135;-55
2022/09/07 08:54:04;;;;;;;30.33;18.20;;;;;;;27.90;100.00;101172.16;5065620;28;20033;-52
2022/09/07 08:56:35;;;;;;;32.90;19.52;;;;;;;28.54;100.00;101175.25;5070498;28;20053;-54
2022/09/07 08:59:20;;;;;;;32.13;18.13;;;;;;;28.70;100.00;101176.53;5071137;28;20037;-55
2022/09/07 09:01:46;;;;;;;30.20;17.37;;;;;;;28.29;100.00;101174.69;5062564;28;20101;-52
2022/09/07 09:04:26;;;;;;;26.92;17.73;;;;;;;28.71;100.00;101186.41;5069207;28;20070;-55
2022/09/07 09:07:16;;;;;;;25.07;15.07;;;;;;;29.15;100.00;101181.25;5068724;28;20060;-55
2022/09/07 09:10:00;;;;;;;22.77;14.53;;;;;;;30.00;100.00;101184.28;5070035;28;20024;-56
2022/09/07 09:12:45;;;;;;;22.87;14.10;;;;;;;30.94;100.00;101180.34;5071925;28;20025;-55
2022/09/07 09:15:20;;;;;;;22.10;13.53;;;;;;;30.88;100.00;101181.63;5068585;28;20024;-56
2022/09/07 09:17:56;;;;;;;22.57;14.23;;;;;;;30.88;100.00;101179.69;5072999;28;20029;-56
2022/09/07 09:20:35;;;;;;;17.33;11.77;;;;;;;32.01;100.00;101189.94;5074202;28;20059;-55
2022/09/07 09:23:14;;;;;;;28.20;17.87;;;;;;;31.83;100.00;101190.06;5072156;28;20036;-54
2022/09/07 09:25:52;;;;;;;26.43;16.20;;;;;;;32.32;100.00;101183.25;5072047;28;20033;-54
2022/09/07 09:28:18;;;;;;;20.57;12.23;;;;;;;33.30;100.00;101198.72;5069562;28;20101;-53
2022/09/07 09:30:43;;;;;;;22.08;13.57;;;;;;;33.56;100.00;101194.03;5074538;28;20029;-53
2022/09/07 09:33:30;;;;;;;16.55;9.55;;;;;;;32.35;100.00;101182.63;5072903;28;20052;-53
2022/09/07 09:35:59;;;;;;;11.32;8.02;;;;;;;33.86;96.01;101189.06;5067678;28;20037;-52
2022/09/07 09:38:29;;;;;;;14.95;9.10;;;;;;;32.93;100.00;101184.75;5068392;28;20033;-50
2022/09/07 09:40:59;;;;;;;21.48;9.98;;;;;;;33.01;98.78;101186.63;5074498;28;20060;-55
2022/09/07 09:43:30;;;;;;;21.02;10.68;;;;;;;34.80;90.52;101187.53;5074709;28;20040;-54
2022/09/07 09:45:57;;;;;;;14.77;9.15;;;;;;;35.57;82.91;101197.56;5073251;28;20071;-53
2022/09/07 09:48:35;;;;;;;70.15;41.88;;;;;;;35.33;82.56;101192.16;5072574;28;20026;-51
2022/09/07 09:51:05;;;;;;;17.52;10.68;;;;;;;36.35;77.91;101196.16;5075708;28;20067;-51
2022/09/07 09:53:34;;;;;;;20.35;14.52;;;;;;;36.54;75.37;101198.16;5071096;28;20040;-55
2022/09/07 09:56:02;;;;;;;11.93;7.95;;;;;;;35.56;76.76;101190.38;5071684;28;20033;-54
2022/09/07 09:58:33;;;;;;;14.60;7.57;;;;;;;35.70;75.99;101189.91;5071372;28;20096;-54
2022/09/07 10:01:05;;;;;;;12.32;7.57;;;;;;;37.09;71.87;101194.50;5071676;28;20033;-56
2022/09/07 10:03:33;;;;;;;10.02;6.93;;;;;;;35.79;70.87;101191.69;5070058;28;20055;-57
2022/09/07 10:06:02;;;;;;;10.77;6.40;;;;;;;35.30;75.17;101193.66;5080240;28;20036;-56
2022/09/07 10:08:31;;;;;;;9.05;5.63;;;;;;;36.16;73.54;101192.19;5078552;28;20037;-56
2022/09/07 10:11:03;;;;;;;12.90;5.95;;;;;;;35.64;74.80;101191.38;5073214;28;20029;-59
2022/09/07 10:13:33;;;;;;;12.77;6.60;;;;;;;35.38;75.86;101189.09;5076519;28;20178;-59
2022/09/07 10:16:07;;;;;;;12.75;6.00;;;;;;;36.40;71.12;101193.09;5072472;28;20025;-60
2022/09/07 10:18:54;;;;;;;8.63;5.40;;;;;;;38.58;63.95;101191.19;5069852;28;20037;-58
2022/09/07 10:21:29;;;;;;;7.70;4.78;;;;;;;38.14;61.95;101190.63;5071048;28;20462;-58
2022/09/07 10:24:04;;;;;;;12.40;5.63;;;;;;;37.86;60.57;101196.56;5077157;28;20043;-59
2022/09/07 10:26:32;;;;;;;8.38;5.07;;;;;;;37.45;61.58;101195.09;5069346;28;20029;-60
2022/09/07 10:29:29;;;;;;;8.95;6.00;;;;;;;35.68;67.36;101186.69;5075549;28;20047;-60
2022/09/07 10:32:36;;;;;;;13.05;5.10;;;;;;;36.85;66.78;101176.09;5073478;28;20058;-58
2022/09/07 10:35:17;;;;;;;8.27;5.18;;;;;;;37.75;61.17;101179.66;5038177;28;20033;-56
2022/09/07 10:37:59;;;;;;;7.93;4.40;;;;;;;39.72;56.51;101180.72;5074796;28;20080;-59
2022/09/07 10:40:28;;;;;;;8.45;4.80;;;;;;;40.86;53.02;101187.25;5079113;28;20032;-59
2022/09/07 10:43:13;;;;;;;8.75;4.50;;;;;;;40.46;52.85;101179.94;5077632;28;20103;-60
2022/09/07 10:45:59;;;;;;;37.08;20.27;;;;;;;40.10;52.87;101181.34;5079274;28;20071;-59
2022/09/07 10:48:36;;;;;;;32.00;19.45;;;;;;;40.54;52.05;101185.16;5072628;28;20037;-60
2022/09/07 10:51:07;;;;;;;22.13;14.88;;;;;;;40.96;49.20;101177.25;5071501;28;20037;-59
2022/09/07 10:53:33;;;;;;;11.07;4.72;;;;;;;38.06;52.56;101171.34;5073759;28;20040;-60
2022/09/07 10:56:48;;;;;;;9.05;3.60;;;;;;;37.24;55.06;101167.66;5077976;28;20048;-59
2022/09/07 10:59:19;;;;;;;11.82;5.65;;;;;;;39.36;52.29;101172.00;5061969;28;20060;-59
2022/09/07 11:02:00;;;;;;;11.13;4.05;;;;;;;40.33;47.81;101173.88;5075867;28;20029;-60
2022/09/07 11:04:39;;;;;;;16.60;5.25;;;;;;;37.36;53.17;101163.06;5078911;28;20072;-60
2022/09/07 11:07:16;;;;;;;38.53;20.63;;;;;;;36.96;55.11;101167.94;5077486;28;20039;-60
2022/09/07 11:10:07;;;;;;;7.90;3.20;;;;;;;37.44;54.18;101165.59;5073895;28;20030;-60
2022/09/07 11:12:36;;;;;;;9.07;4.63;;;;;;;35.91;58.87;101165.75;5078983;28;20085;-60
2022/09/07 11:15:26;;;;;;;14.88;6.72;;;;;;;37.57;54.47;101163.44;5076034;28;20062;-60
2022/09/07 11:17:58;;;;;;;16.92;8.60;;;;;;;38.72;50.63;101176.59;5076861;28;20101;-62
2022/09/07 11:20:30;;;;;;;8.10;3.03;;;;;;;38.50;50.91;101179.13;5079029;28;20060;-60
2022/09/07 11:23:10;;;;;;;9.60;3.20;;;;;;;36.88;53.03;101170.59;5073627;28;20039;-59
2022/09/07 11:25:46;;;;;;;9.23;3.00;;;;;;;36.18;56.00;101166.78;5075828;28;20044;-60